createdAt,value
2019-03-13T00:00:16.560Z,82.98
2019-03-13T00:01:16.551Z,83.50
2019-03-13T00:02:16.581Z,82.36
2019-03-13T00:03:16.531Z,82.57
2019-03-13T00:04:16.564Z,81.81
2019-03-13T00:05:16.512Z,81.91
2019-03-13T00:06:16.514Z,82.05
2019-03-13T00:07:16.505Z,82.01
2019-03-13T00:08:16.483Z,82.12
2019-03-13T00:09:16.460Z,82.12
2019-03-13T00:10:16.443Z,81.81
2019-03-13T00:11:16.447Z,81.81
2019-03-13T00:12:16.429Z,81.09
2019-03-13T00:13:16.445Z,81.39
2019-03-13T00:14:16.431Z,81.70
2019-03-13T00:15:16.471Z,80.46
2019-03-13T00:16:16.416Z,81.19
2019-03-13T00:17:16.370Z,81.39
2019-03-13T00:18:16.546Z,80.98
2019-03-13T00:19:16.417Z,80.77
2019-03-13T00:20:16.576Z,80.98
2019-03-13T00:21:16.416Z,80.26
2019-03-13T00:22:16.456Z,80.88
2019-03-13T00:23:16.414Z,80.88
2019-03-13T00:24:16.333Z,80.46
2019-03-13T00:25:16.321Z,79.84
2019-03-13T00:26:16.403Z,79.94
2019-03-13T00:27:16.327Z,79.74
2019-03-13T00:28:16.404Z,79.43
2019-03-13T00:29:16.298Z,79.74
2019-03-13T00:30:16.269Z,79.22
2019-03-13T00:31:16.295Z,79.63
2019-03-13T00:32:16.251Z,79.33
2019-03-13T00:33:16.244Z,79.53
2019-03-13T00:34:16.220Z,79.12
2019-03-13T00:35:16.223Z,79.02
2019-03-13T00:36:16.210Z,80.05
2019-03-13T00:37:16.240Z,78.91
2019-03-13T00:38:16.276Z,79.02
2019-03-13T00:39:16.298Z,78.91
2019-03-13T00:40:16.177Z,78.08
2019-03-13T00:41:16.166Z,79.12
2019-03-13T00:42:16.195Z,79.63
2019-03-13T00:43:16.147Z,78.70
2019-03-13T00:44:16.217Z,79.08
2019-03-13T00:45:16.201Z,79.39
2019-03-13T00:46:16.118Z,79.63
2019-03-13T00:47:16.073Z,79.94
2019-03-13T00:48:16.104Z,79.74
2019-03-13T00:49:16.078Z,79.63
2019-03-13T00:50:16.031Z,79.53
2019-03-13T00:51:16.113Z,79.43
2019-03-13T00:52:16.023Z,80.15
2019-03-13T00:53:16.018Z,80.08
2019-03-13T00:54:16.137Z,79.98
2019-03-13T00:55:16.009Z,79.67
2019-03-13T00:56:15.998Z,79.67
2019-03-13T00:57:15.982Z,80.29
2019-03-13T00:58:15.990Z,79.57
2019-03-13T00:59:15.970Z,79.67
2019-03-13T01:00:16.130Z,80.29
2019-03-13T01:01:15.924Z,80.29
2019-03-13T01:02:15.904Z,79.98
2019-03-13T01:03:16.039Z,79.98
2019-03-13T01:04:15.903Z,79.77
2019-03-13T01:05:15.844Z,80.08
2019-03-13T01:06:15.874Z,80.05
2019-03-13T01:07:15.848Z,80.19
2019-03-13T01:08:15.852Z,80.19
2019-03-13T01:09:15.881Z,79.88
2019-03-13T01:10:15.782Z,80.19
2019-03-13T01:11:15.836Z,79.88
2019-03-13T01:12:15.810Z,80.19
2019-03-13T01:13:15.807Z,79.67
2019-03-13T01:14:15.839Z,79.57
2019-03-13T01:15:15.820Z,79.67
2019-03-13T01:16:15.766Z,80.08
2019-03-13T01:17:15.784Z,79.57
2019-03-13T01:18:15.744Z,79.36
2019-03-13T01:19:15.820Z,79.67
2019-03-13T01:20:15.728Z,79.88
2019-03-13T01:21:15.694Z,79.77
2019-03-13T01:22:15.693Z,80.19
2019-03-13T01:23:15.686Z,79.98
2019-03-13T01:24:15.725Z,79.77
2019-03-13T01:25:15.629Z,79.47
2019-03-13T01:26:15.771Z,79.67
2019-03-13T01:27:15.673Z,80.08
2019-03-13T01:28:15.649Z,79.98
2019-03-13T01:29:15.656Z,79.57
2019-03-13T01:30:15.654Z,79.98
2019-03-13T01:31:15.605Z,79.77
2019-03-13T01:32:15.623Z,79.43
2019-03-13T01:33:15.557Z,79.88
2019-03-13T01:34:15.580Z,79.57
2019-03-13T01:35:15.645Z,79.53
2019-03-13T01:36:15.579Z,79.57
2019-03-13T01:37:15.538Z,80.05
2019-03-13T01:38:15.547Z,79.84
2019-03-13T01:39:15.487Z,79.43
2019-03-13T01:40:15.486Z,79.63
2019-03-13T01:41:15.590Z,79.33
2019-03-13T01:42:15.485Z,78.29
2019-03-13T01:43:15.438Z,77.98
2019-03-13T01:44:15.433Z,78.25
2019-03-13T01:45:15.422Z,78.29
2019-03-13T01:46:15.502Z,78.19
2019-03-13T01:47:15.394Z,78.15
2019-03-13T01:48:15.384Z,78.56
2019-03-13T01:49:15.410Z,78.67
2019-03-13T01:50:15.381Z,78.98
2019-03-13T01:51:15.391Z,78.81
2019-03-13T01:52:15.469Z,77.87
2019-03-13T01:53:15.371Z,78.29
2019-03-13T01:54:15.386Z,79.02
2019-03-13T01:55:15.380Z,79.02
2019-03-13T01:56:15.447Z,78.91
2019-03-13T01:57:15.333Z,79.12
2019-03-13T01:58:15.344Z,78.70
2019-03-13T01:59:15.408Z,79.12
2019-03-13T02:00:15.233Z,78.70
2019-03-13T02:01:15.280Z,79.94
2019-03-13T02:02:15.342Z,78.88
2019-03-13T02:03:15.331Z,78.60
2019-03-13T02:04:15.208Z,79.08
2019-03-13T02:05:15.971Z,78.91
2019-03-13T02:06:15.215Z,78.91
2019-03-13T02:07:15.205Z,78.77
2019-03-13T02:08:15.164Z,79.12
2019-03-13T02:09:15.355Z,78.88
2019-03-13T02:10:15.182Z,79.22
2019-03-13T02:11:15.165Z,78.91
2019-03-13T02:12:15.143Z,78.70
2019-03-13T02:13:15.132Z,78.70
2019-03-13T02:14:15.142Z,78.91
2019-03-13T02:15:16.040Z,78.39
2019-03-13T02:16:15.141Z,78.91
2019-03-13T02:17:15.164Z,79.12
2019-03-13T02:18:15.173Z,79.74
2019-03-13T02:19:15.042Z,79.43
2019-03-13T02:20:15.026Z,79.53
2019-03-13T02:21:15.079Z,79.49
2019-03-13T02:22:15.077Z,79.63
2019-03-13T02:23:15.014Z,79.43
2019-03-13T02:24:15.013Z,80.15
2019-03-13T02:25:15.003Z,79.84
2019-03-13T02:26:15.062Z,79.39
2019-03-13T02:27:14.974Z,79.74
2019-03-13T02:28:14.965Z,79.84
2019-03-13T02:29:14.944Z,78.98
2019-03-13T02:30:14.930Z,78.91
2019-03-13T02:31:14.948Z,79.12
2019-03-13T02:32:15.047Z,79.63
2019-03-13T02:33:15.028Z,79.39
2019-03-13T02:34:14.918Z,79.53
2019-03-13T02:35:14.853Z,79.53
2019-03-13T02:36:15.061Z,80.01
2019-03-13T02:37:14.879Z,79.43
2019-03-13T02:38:14.976Z,79.49
2019-03-13T02:39:15.049Z,79.39
2019-03-13T02:40:14.906Z,79.49
2019-03-13T02:41:14.842Z,79.29
2019-03-13T02:42:14.835Z,79.60
2019-03-13T02:43:14.812Z,79.12
2019-03-13T02:44:14.817Z,79.29
2019-03-13T02:45:14.967Z,79.08
2019-03-13T02:46:14.875Z,79.49
2019-03-13T02:47:18.766Z,79.39
2019-03-13T02:48:14.779Z,79.39
2019-03-13T02:49:14.752Z,79.60
2019-03-13T02:50:14.829Z,79.70
2019-03-13T02:51:14.705Z,79.53
2019-03-13T02:52:14.730Z,79.60
2019-03-13T02:53:14.701Z,80.11
2019-03-13T02:54:14.684Z,80.74
2019-03-13T02:55:14.920Z,80.01
2019-03-13T02:56:14.668Z,80.74
2019-03-13T02:57:14.726Z,79.60
2019-03-13T02:58:14.654Z,80.01
2019-03-13T02:59:14.654Z,79.60
2019-03-13T03:00:14.605Z,79.60
2019-03-13T03:01:14.634Z,79.60
2019-03-13T03:02:14.704Z,79.60
2019-03-13T03:03:14.746Z,79.39
2019-03-13T03:04:14.680Z,79.91
2019-03-13T03:05:14.571Z,79.91
2019-03-13T03:06:14.548Z,79.70
2019-03-13T03:07:14.549Z,79.49
2019-03-13T03:08:14.539Z,79.19
2019-03-13T03:09:14.636Z,79.39
2019-03-13T03:10:14.514Z,79.70
2019-03-13T03:11:14.701Z,79.49
2019-03-13T03:12:14.565Z,79.60
2019-03-13T03:13:14.549Z,78.98
2019-03-13T03:14:14.564Z,80.01
2019-03-13T03:15:14.445Z,79.91
2019-03-13T03:16:14.442Z,79.49
2019-03-13T03:17:14.419Z,78.88
2019-03-13T03:18:14.432Z,78.15
2019-03-13T03:19:14.534Z,78.25
2019-03-13T03:20:14.394Z,78.15
2019-03-13T03:21:14.378Z,78.05
2019-03-13T03:22:14.509Z,78.25
2019-03-13T03:23:14.371Z,78.15
2019-03-13T03:24:14.354Z,78.19
2019-03-13T03:25:14.468Z,78.46
2019-03-13T03:26:14.336Z,78.56
2019-03-13T03:27:14.331Z,78.46
2019-03-13T03:28:14.371Z,78.77
2019-03-13T03:29:14.300Z,78.77
2019-03-13T03:30:14.289Z,78.67
2019-03-13T03:31:14.327Z,78.77
2019-03-13T03:32:14.251Z,78.36
2019-03-13T03:33:14.261Z,78.46
2019-03-13T03:34:14.369Z,78.77
2019-03-13T03:35:14.237Z,78.88
2019-03-13T03:36:14.977Z,78.67
2019-03-13T03:37:14.207Z,78.56
2019-03-13T03:38:14.219Z,78.67
2019-03-13T03:39:15.580Z,78.67
2019-03-13T03:40:14.273Z,78.36
2019-03-13T03:41:14.198Z,78.67
2019-03-13T03:42:14.198Z,78.88
2019-03-13T03:43:14.137Z,78.46
2019-03-13T03:44:14.196Z,78.05
2019-03-13T03:45:14.198Z,77.94
2019-03-13T03:46:14.106Z,78.19
2019-03-13T03:47:14.090Z,77.94
2019-03-13T03:48:14.076Z,78.05
2019-03-13T03:49:14.083Z,77.94
2019-03-13T03:50:14.089Z,77.01
2019-03-13T03:51:14.185Z,77.43
2019-03-13T03:52:14.140Z,77.64
2019-03-13T03:53:14.033Z,77.12
2019-03-13T03:54:14.114Z,76.91
2019-03-13T03:55:14.014Z,77.01
2019-03-13T03:56:13.996Z,77.01
2019-03-13T03:57:14.206Z,76.87
2019-03-13T03:58:14.061Z,76.60
2019-03-13T03:59:13.952Z,76.81
2019-03-13T04:00:13.944Z,76.26
2019-03-13T04:01:13.950Z,75.95
2019-03-13T04:02:14.027Z,75.95
2019-03-13T04:03:13.934Z,76.05
2019-03-13T04:04:13.967Z,76.15
2019-03-13T04:05:14.023Z,75.84
2019-03-13T04:06:13.892Z,75.95
2019-03-13T04:07:13.888Z,76.05
2019-03-13T04:08:13.958Z,76.05
2019-03-13T04:09:13.838Z,75.74
2019-03-13T04:10:13.836Z,75.43
2019-03-13T04:11:13.838Z,76.05
2019-03-13T04:12:13.932Z,75.84
2019-03-13T04:13:13.804Z,76.26
2019-03-13T04:14:14.592Z,75.63
2019-03-13T04:15:13.783Z,75.53
2019-03-13T04:16:13.779Z,75.09
2019-03-13T04:17:13.856Z,75.32
2019-03-13T04:18:13.892Z,76.15
2019-03-13T04:19:13.741Z,75.84
2019-03-13T04:20:13.734Z,75.63
2019-03-13T04:21:13.933Z,75.01
2019-03-13T04:22:13.719Z,75.32
2019-03-13T04:23:13.703Z,75.22
2019-03-13T04:24:13.735Z,75.01
2019-03-13T04:25:13.658Z,74.50
2019-03-13T04:26:13.716Z,75.32
2019-03-13T04:27:13.736Z,75.19
2019-03-13T04:28:13.648Z,74.36
2019-03-13T04:29:13.627Z,74.60
2019-03-13T04:30:13.706Z,73.85
2019-03-13T04:31:13.592Z,74.26
2019-03-13T04:32:13.605Z,74.05
2019-03-13T04:33:13.602Z,73.95
2019-03-13T04:34:13.553Z,73.64
2019-03-13T04:35:13.662Z,73.85
2019-03-13T04:36:13.580Z,74.36
2019-03-13T04:37:13.577Z,74.26
2019-03-13T04:38:13.546Z,73.74
2019-03-13T04:39:13.522Z,74.05
2019-03-13T04:40:13.584Z,74.15
2019-03-13T04:41:13.516Z,74.67
2019-03-13T04:42:13.581Z,74.15
2019-03-13T04:43:13.496Z,74.19
2019-03-13T04:44:13.512Z,74.36
2019-03-13T04:45:13.460Z,75.29
2019-03-13T04:46:13.449Z,74.26
2019-03-13T04:47:13.411Z,75.09
2019-03-13T04:48:13.420Z,75.19
2019-03-13T04:49:13.417Z,74.88
2019-03-13T04:50:14.583Z,73.95
2019-03-13T04:51:13.392Z,74.98
2019-03-13T04:52:13.380Z,74.26
2019-03-13T04:53:13.364Z,75.29
2019-03-13T04:54:13.339Z,75.19
2019-03-13T04:55:13.330Z,75.19
2019-03-13T04:56:13.450Z,74.98
2019-03-13T04:57:13.319Z,74.60
2019-03-13T04:58:13.421Z,74.67
2019-03-13T04:59:13.298Z,74.26
2019-03-13T05:00:13.277Z,74.57
2019-03-13T05:01:13.298Z,74.15
2019-03-13T05:02:13.334Z,74.77
2019-03-13T05:03:13.287Z,74.46
2019-03-13T05:04:13.251Z,74.36
2019-03-13T05:05:13.240Z,73.85
2019-03-13T05:06:13.226Z,74.36
2019-03-13T05:07:13.223Z,74.67
2019-03-13T05:08:13.316Z,74.57
2019-03-13T05:09:13.170Z,74.77
2019-03-13T05:10:13.178Z,73.64
2019-03-13T05:11:13.178Z,73.64
2019-03-13T05:12:13.986Z,73.54
2019-03-13T05:13:13.115Z,74.05
2019-03-13T05:14:13.225Z,74.15
2019-03-13T05:15:13.106Z,73.74
2019-03-13T05:16:13.195Z,74.05
2019-03-13T05:17:13.151Z,73.64
2019-03-13T05:18:13.070Z,73.43
2019-03-13T05:19:13.174Z,73.43
2019-03-13T05:20:13.921Z,73.43
2019-03-13T05:21:13.056Z,73.22
2019-03-13T05:22:13.031Z,73.33
2019-03-13T05:23:13.017Z,73.43
2019-03-13T05:24:12.999Z,73.29
2019-03-13T05:25:12.997Z,73.19
2019-03-13T05:26:13.040Z,73.50
2019-03-13T05:27:12.986Z,72.71
2019-03-13T05:28:12.984Z,73.54
2019-03-13T05:29:13.491Z,73.22
2019-03-13T05:30:13.025Z,73.29
2019-03-13T05:31:12.917Z,73.39
2019-03-13T05:32:12.917Z,73.19
2019-03-13T05:33:12.964Z,73.71
2019-03-13T05:34:12.943Z,73.60
2019-03-13T05:35:12.882Z,73.60
2019-03-13T05:36:16.333Z,73.09
2019-03-13T05:37:12.896Z,73.33
2019-03-13T05:38:12.864Z,73.39
2019-03-13T05:39:12.860Z,73.39
2019-03-13T05:40:12.876Z,73.39
2019-03-13T05:41:13.173Z,73.50
2019-03-13T05:42:12.823Z,73.60
2019-03-13T05:43:12.795Z,73.39
2019-03-13T05:44:12.806Z,72.78
2019-03-13T05:45:12.798Z,72.99
2019-03-13T05:46:12.900Z,73.29
2019-03-13T05:47:12.858Z,73.60
2019-03-13T05:48:12.755Z,73.71
2019-03-13T05:49:12.732Z,73.29
2019-03-13T05:50:12.717Z,72.67
2019-03-13T05:51:12.726Z,73.29
2019-03-13T05:52:12.795Z,73.29
2019-03-13T05:53:12.678Z,73.33
2019-03-13T05:54:12.687Z,73.29
2019-03-13T05:55:12.657Z,73.29
2019-03-13T05:56:12.644Z,73.39
2019-03-13T05:57:12.771Z,73.50
2019-03-13T05:58:12.663Z,73.29
2019-03-13T05:59:12.713Z,73.19
2019-03-13T06:00:12.664Z,73.50
2019-03-13T06:01:12.607Z,72.47
2019-03-13T06:02:13.494Z,73.50
2019-03-13T06:03:12.600Z,72.88
2019-03-13T06:04:12.570Z,72.78
2019-03-13T06:05:12.671Z,73.50
2019-03-13T06:06:12.553Z,73.60
2019-03-13T06:07:12.555Z,73.50
2019-03-13T06:08:12.522Z,73.29
2019-03-13T06:09:12.594Z,73.39
2019-03-13T06:10:12.516Z,73.39
2019-03-13T06:11:12.486Z,73.29
2019-03-13T06:12:12.535Z,73.39
2019-03-13T06:13:12.669Z,73.29
2019-03-13T06:14:12.523Z,73.19
2019-03-13T06:15:12.459Z,73.39
2019-03-13T06:16:12.591Z,73.29
2019-03-13T06:17:12.464Z,73.19
2019-03-13T06:18:12.492Z,73.29
2019-03-13T06:19:12.465Z,73.29
2019-03-13T06:20:12.373Z,73.29
2019-03-13T06:21:12.400Z,73.19
2019-03-13T06:22:12.362Z,73.19
2019-03-13T06:23:12.363Z,73.29
2019-03-13T06:24:12.490Z,73.71
2019-03-13T06:25:12.346Z,73.29
2019-03-13T06:26:12.299Z,73.50
2019-03-13T06:27:12.386Z,73.50
2019-03-13T06:28:12.330Z,73.29
2019-03-13T06:29:12.406Z,73.29
2019-03-13T06:30:12.365Z,73.29
2019-03-13T06:31:12.297Z,72.99
2019-03-13T06:32:12.342Z,72.57
2019-03-13T06:33:12.249Z,72.67
2019-03-13T06:34:12.266Z,72.95
2019-03-13T06:35:12.333Z,75.22
2019-03-13T06:36:12.215Z,75.01
2019-03-13T06:37:12.205Z,74.81
2019-03-13T06:38:12.187Z,74.95
2019-03-13T06:39:12.222Z,75.49
2019-03-13T06:40:12.163Z,75.29
2019-03-13T06:41:12.246Z,75.46
2019-03-13T06:42:12.157Z,75.39
2019-03-13T06:43:12.209Z,74.88
2019-03-13T06:44:12.137Z,74.98
2019-03-13T06:45:12.130Z,74.02
2019-03-13T06:46:12.216Z,74.02
2019-03-13T06:47:12.088Z,74.05
2019-03-13T06:48:12.062Z,73.81
2019-03-13T06:49:12.202Z,73.81
2019-03-13T06:50:12.048Z,73.39
2019-03-13T06:51:12.094Z,74.02
2019-03-13T06:52:12.030Z,73.50
2019-03-13T06:53:12.030Z,73.39
2019-03-13T06:54:11.999Z,73.39
2019-03-13T06:55:12.068Z,73.39
2019-03-13T06:56:12.010Z,73.60
2019-03-13T06:57:12.045Z,73.50
2019-03-13T06:58:11.993Z,73.91
2019-03-13T06:59:13.435Z,74.22
2019-03-13T07:00:11.999Z,74.22
2019-03-13T07:01:11.987Z,73.91
2019-03-13T07:02:11.922Z,74.33
2019-03-13T07:03:11.934Z,74.22
2019-03-13T07:04:11.964Z,75.46
2019-03-13T07:05:11.902Z,74.84
2019-03-13T07:06:12.509Z,74.84
2019-03-13T07:07:12.084Z,75.87
2019-03-13T07:08:11.852Z,75.29
2019-03-13T07:09:11.858Z,75.46
2019-03-13T07:10:11.947Z,75.77
2019-03-13T07:11:11.813Z,75.29
2019-03-13T07:12:11.842Z,75.49
2019-03-13T07:13:11.953Z,75.09
2019-03-13T07:14:11.778Z,75.49
2019-03-13T07:15:11.797Z,75.60
2019-03-13T07:16:11.945Z,75.70
2019-03-13T07:17:11.794Z,76.01
2019-03-13T07:18:11.759Z,75.49
2019-03-13T07:19:11.824Z,75.29
2019-03-13T07:20:11.714Z,74.88
2019-03-13T07:21:11.712Z,75.91
2019-03-13T07:22:11.732Z,75.15
2019-03-13T07:23:11.822Z,75.46
2019-03-13T07:24:11.672Z,75.46
2019-03-13T07:25:11.672Z,75.36
2019-03-13T07:26:11.814Z,75.05
2019-03-13T07:27:11.714Z,75.26
2019-03-13T07:28:11.635Z,75.15
2019-03-13T07:29:12.820Z,74.74
2019-03-13T07:30:11.637Z,76.08
2019-03-13T07:31:11.636Z,76.84
2019-03-13T07:32:11.584Z,78.08
2019-03-13T07:33:11.597Z,79.42
2019-03-13T07:34:11.571Z,79.11
2019-03-13T07:35:11.654Z,80.18
2019-03-13T07:36:11.565Z,80.60
2019-03-13T07:37:11.553Z,80.08
2019-03-13T07:38:11.529Z,80.29
2019-03-13T07:39:11.607Z,80.08
2019-03-13T07:40:11.513Z,79.46
2019-03-13T07:41:11.502Z,79.97
2019-03-13T07:42:12.510Z,79.97
2019-03-13T07:43:11.517Z,79.87
2019-03-13T07:44:11.459Z,79.87
2019-03-13T07:45:11.537Z,79.56
2019-03-13T07:46:11.429Z,79.36
2019-03-13T07:47:11.428Z,78.22
2019-03-13T07:48:11.459Z,78.28
2019-03-13T07:49:11.408Z,77.98
2019-03-13T07:50:11.406Z,77.87
2019-03-13T07:51:11.454Z,77.87
2019-03-13T07:52:11.388Z,77.77
2019-03-13T07:53:11.381Z,77.04
2019-03-13T07:54:11.354Z,77.36
2019-03-13T07:55:11.348Z,77.15
2019-03-13T07:56:11.323Z,76.94
2019-03-13T07:57:11.414Z,76.39
2019-03-13T07:58:11.318Z,76.70
2019-03-13T07:59:11.370Z,76.29
2019-03-13T08:00:11.264Z,76.81
2019-03-13T08:01:11.282Z,76.60
2019-03-13T08:02:11.343Z,75.77
2019-03-13T08:03:12.015Z,75.77
2019-03-13T08:04:11.252Z,76.15
2019-03-13T08:05:11.250Z,75.77
2019-03-13T08:06:11.281Z,75.63
2019-03-13T08:07:11.246Z,75.57
2019-03-13T08:08:11.315Z,75.53
2019-03-13T08:09:11.222Z,75.84
2019-03-13T08:10:11.198Z,75.36
2019-03-13T08:11:11.235Z,75.36
2019-03-13T08:12:11.235Z,75.67
2019-03-13T08:13:11.165Z,75.15
2019-03-13T08:14:11.137Z,75.32
2019-03-13T08:15:11.153Z,75.46
2019-03-13T08:16:11.119Z,75.36
2019-03-13T08:17:11.179Z,75.32
2019-03-13T08:18:11.089Z,75.01
2019-03-13T08:19:11.082Z,75.53
2019-03-13T08:20:11.081Z,75.22
2019-03-13T08:21:11.132Z,75.32
2019-03-13T08:22:11.173Z,75.32
2019-03-13T08:23:11.034Z,75.53
2019-03-13T08:24:11.058Z,75.74
2019-03-13T08:25:11.021Z,75.74
2019-03-13T08:26:11.069Z,75.63
2019-03-13T08:27:10.980Z,75.43
2019-03-13T08:28:10.980Z,74.91
2019-03-13T08:29:10.973Z,74.81
2019-03-13T08:30:10.969Z,75.22
2019-03-13T08:31:10.959Z,74.71
2019-03-13T08:32:11.008Z,75.63
2019-03-13T08:33:10.921Z,75.63
2019-03-13T08:34:10.908Z,75.74
2019-03-13T08:35:10.972Z,75.01
2019-03-13T08:36:10.879Z,76.15
2019-03-13T08:37:10.988Z,76.15
2019-03-13T08:38:10.875Z,76.18
2019-03-13T08:39:10.862Z,76.35
2019-03-13T08:40:10.872Z,76.35
2019-03-13T08:41:10.862Z,76.67
2019-03-13T08:42:10.838Z,77.49
2019-03-13T08:43:11.519Z,77.22
2019-03-13T08:44:10.804Z,77.70
2019-03-13T08:45:10.783Z,77.32
2019-03-13T08:46:10.891Z,77.59
2019-03-13T08:47:10.826Z,77.32
2019-03-13T08:48:10.766Z,77.18
2019-03-13T08:49:10.852Z,77.08
2019-03-13T08:50:10.727Z,76.87
2019-03-13T08:51:10.777Z,77.18
2019-03-13T08:52:10.794Z,76.98
2019-03-13T08:53:10.732Z,77.39
2019-03-13T08:54:10.704Z,77.39
2019-03-13T08:55:10.673Z,76.87
2019-03-13T08:56:10.662Z,76.67
2019-03-13T08:57:10.643Z,76.67
2019-03-13T08:58:10.722Z,76.04
2019-03-13T08:59:10.635Z,76.04
2019-03-13T09:00:10.725Z,76.46
2019-03-13T09:01:10.606Z,76.67
2019-03-13T09:02:10.597Z,75.60
2019-03-13T09:03:10.666Z,75.81
2019-03-13T09:04:10.587Z,75.18
2019-03-13T09:05:10.598Z,75.60
2019-03-13T09:06:10.567Z,75.39
2019-03-13T09:07:10.588Z,76.01
2019-03-13T09:08:10.615Z,75.43
2019-03-13T09:09:10.586Z,75.95
2019-03-13T09:10:10.499Z,76.46
2019-03-13T09:11:10.497Z,77.08
2019-03-13T09:12:10.515Z,78.01
2019-03-13T09:13:10.564Z,79.55
2019-03-13T09:14:10.456Z,80.83
2019-03-13T09:15:10.460Z,82.17
2019-03-13T09:16:10.503Z,83.34
2019-03-13T09:17:11.040Z,84.07
2019-03-13T09:18:10.457Z,84.07
2019-03-13T09:19:10.420Z,85.62
2019-03-13T09:20:10.405Z,84.73
2019-03-13T09:21:10.533Z,85.35
2019-03-13T09:22:27.142Z,86.07
2019-03-13T09:23:10.414Z,86.28
2019-03-13T09:24:10.356Z,86.90
2019-03-13T09:25:12.477Z,85.76
2019-03-13T09:26:10.347Z,85.35
2019-03-13T09:27:10.319Z,85.35
2019-03-13T09:28:10.401Z,85.86
2019-03-13T09:29:10.500Z,85.86
2019-03-13T09:30:10.300Z,87.21
2019-03-13T09:31:10.266Z,88.49
2019-03-13T09:32:10.314Z,88.90
2019-03-13T09:33:10.330Z,89.22
2019-03-13T09:34:10.244Z,90.04
2019-03-13T09:35:10.240Z,89.77
2019-03-13T09:36:10.237Z,89.94
2019-03-13T09:37:10.197Z,91.22
2019-03-13T09:38:10.224Z,90.50
2019-03-13T09:39:10.258Z,89.77
2019-03-13T09:40:10.256Z,90.08
2019-03-13T09:41:10.189Z,90.08
2019-03-13T09:42:10.152Z,89.77
2019-03-13T09:43:10.168Z,88.84
2019-03-13T09:44:10.236Z,89.56
2019-03-13T09:45:10.273Z,89.98
2019-03-13T09:46:10.092Z,89.46
2019-03-13T09:47:10.155Z,89.77
2019-03-13T09:48:10.129Z,91.11
2019-03-13T09:49:10.105Z,90.70
2019-03-13T09:50:10.050Z,89.52
2019-03-13T09:51:10.065Z,88.49
2019-03-13T09:52:10.062Z,89.01
2019-03-13T09:53:10.103Z,89.42
2019-03-13T09:54:10.033Z,88.59
2019-03-13T09:55:10.029Z,88.07
2019-03-13T09:56:09.989Z,87.87
2019-03-13T09:57:09.979Z,86.38
2019-03-13T09:58:09.988Z,86.38
2019-03-13T09:59:10.041Z,87.62
2019-03-13T10:00:09.923Z,86.86
2019-03-13T10:01:11.033Z,87.21
2019-03-13T10:02:09.923Z,86.38
2019-03-13T10:03:09.903Z,85.62
2019-03-13T10:04:10.017Z,86.96
2019-03-13T10:05:09.972Z,86.65
2019-03-13T10:06:09.876Z,86.86
2019-03-13T10:07:09.864Z,86.55
2019-03-13T10:08:09.859Z,86.76
2019-03-13T10:09:09.875Z,85.72
2019-03-13T10:10:09.878Z,85.21
2019-03-13T10:11:09.910Z,85.21
2019-03-13T10:12:09.799Z,84.07
2019-03-13T10:13:09.798Z,84.69
2019-03-13T10:14:09.793Z,85.83
2019-03-13T10:15:09.875Z,85.10
2019-03-13T10:16:09.842Z,85.72
2019-03-13T10:17:11.318Z,84.79
2019-03-13T10:18:09.747Z,85.00
2019-03-13T10:19:09.744Z,83.97
2019-03-13T10:20:09.752Z,85.00
2019-03-13T10:21:09.809Z,84.79
2019-03-13T10:22:09.695Z,85.68
2019-03-13T10:23:09.695Z,84.86
2019-03-13T10:24:09.699Z,83.76
2019-03-13T10:25:09.789Z,84.86
2019-03-13T10:26:09.667Z,84.44
2019-03-13T10:27:09.711Z,85.37
2019-03-13T10:28:09.746Z,85.37
2019-03-13T10:29:09.624Z,85.27
2019-03-13T10:30:09.610Z,83.10
2019-03-13T10:31:09.677Z,82.65
2019-03-13T10:32:09.597Z,83.06
2019-03-13T10:33:09.674Z,82.65
2019-03-13T10:34:09.635Z,82.69
2019-03-13T10:35:09.572Z,83.72
2019-03-13T10:36:09.560Z,83.41
2019-03-13T10:37:09.624Z,83.27
2019-03-13T10:38:14.073Z,83.17
2019-03-13T10:39:09.544Z,82.55
2019-03-13T10:40:09.560Z,82.14
2019-03-13T10:41:09.661Z,82.96
2019-03-13T10:42:09.563Z,82.14
2019-03-13T10:43:09.453Z,81.82
2019-03-13T10:44:09.530Z,82.55
2019-03-13T10:45:09.441Z,82.65
2019-03-13T10:46:09.427Z,81.21
2019-03-13T10:47:09.512Z,81.51
2019-03-13T10:48:09.464Z,82.14
2019-03-13T10:49:09.402Z,81.10
2019-03-13T10:50:09.386Z,81.21
2019-03-13T10:51:09.389Z,81.21
2019-03-13T10:52:09.436Z,81.51
2019-03-13T10:53:09.420Z,82.14
2019-03-13T10:54:09.343Z,82.92
2019-03-13T10:55:09.332Z,81.99
2019-03-13T10:56:09.364Z,83.13
2019-03-13T10:57:09.363Z,81.37
2019-03-13T10:58:09.300Z,82.61
2019-03-13T10:59:09.341Z,81.48
2019-03-13T11:00:09.329Z,81.07
2019-03-13T11:01:09.277Z,81.07
2019-03-13T11:02:09.275Z,80.51
2019-03-13T11:03:09.268Z,80.62
2019-03-13T11:04:09.289Z,81.03
2019-03-13T11:05:09.503Z,81.85
2019-03-13T11:06:09.227Z,81.85
2019-03-13T11:07:09.190Z,81.51
2019-03-13T11:08:09.259Z,80.79
2019-03-13T11:09:09.265Z,79.44
2019-03-13T11:10:09.177Z,79.17
2019-03-13T11:11:09.217Z,79.90
2019-03-13T11:12:09.138Z,80.68
2019-03-13T11:13:09.159Z,79.75
2019-03-13T11:14:15.432Z,80.37
2019-03-13T11:15:10.208Z,79.14
2019-03-13T11:16:09.155Z,78.62
2019-03-13T11:17:10.048Z,78.72
2019-03-13T11:18:09.169Z,79.14
2019-03-13T11:19:09.083Z,78.52
2019-03-13T11:20:09.053Z,79.24
2019-03-13T11:21:09.119Z,78.62
2019-03-13T11:22:09.150Z,77.69
2019-03-13T11:23:09.023Z,78.52
2019-03-13T11:24:09.092Z,77.08
2019-03-13T11:25:09.044Z,77.48
2019-03-13T11:26:08.994Z,77.59
2019-03-13T11:27:08.994Z,77.90
2019-03-13T11:28:09.054Z,77.59
2019-03-13T11:29:08.954Z,78.52
2019-03-13T11:30:08.952Z,78.21
2019-03-13T11:31:08.939Z,77.48
2019-03-13T11:32:08.909Z,77.48
2019-03-13T11:33:08.906Z,77.69
2019-03-13T11:34:09.089Z,78.11
2019-03-13T11:35:08.905Z,78.41
2019-03-13T11:36:08.896Z,77.90
2019-03-13T11:37:09.126Z,77.69
2019-03-13T11:38:08.912Z,78.31
2019-03-13T11:39:08.840Z,78.21
2019-03-13T11:40:08.888Z,77.90
2019-03-13T11:41:08.815Z,77.90
2019-03-13T11:42:08.815Z,77.08
2019-03-13T11:43:08.802Z,76.97
2019-03-13T11:44:08.869Z,77.28
2019-03-13T11:45:08.780Z,76.73
2019-03-13T11:46:08.832Z,76.35
2019-03-13T11:47:08.758Z,76.21
2019-03-13T11:48:08.756Z,75.90
2019-03-13T11:49:08.774Z,76.15
2019-03-13T11:50:08.913Z,76.53
2019-03-13T11:51:08.802Z,76.53
2019-03-13T11:52:08.672Z,76.42
2019-03-13T11:53:08.746Z,75.90
2019-03-13T11:54:08.715Z,76.63
2019-03-13T11:55:08.727Z,76.42
2019-03-13T11:56:08.657Z,76.11
2019-03-13T11:57:08.638Z,76.97
2019-03-13T11:58:08.646Z,77.04
2019-03-13T11:59:08.659Z,76.87
2019-03-13T12:00:08.607Z,76.93
2019-03-13T12:01:08.758Z,76.01
2019-03-13T12:02:08.580Z,76.32
2019-03-13T12:03:08.579Z,76.53
2019-03-13T12:04:08.642Z,76.42
2019-03-13T12:05:08.544Z,76.73
2019-03-13T12:06:09.055Z,77.25
2019-03-13T12:07:08.580Z,76.93
2019-03-13T12:08:08.525Z,76.63
2019-03-13T12:09:08.506Z,77.14
2019-03-13T12:10:08.489Z,76.53
2019-03-13T12:11:08.545Z,76.32
2019-03-13T12:12:08.570Z,77.45
2019-03-13T12:13:10.445Z,77.86
2019-03-13T12:14:08.446Z,78.48
2019-03-13T12:15:08.447Z,78.28
2019-03-13T12:16:08.498Z,79.34
2019-03-13T12:17:08.562Z,80.37
2019-03-13T12:18:08.451Z,80.68
2019-03-13T12:19:08.388Z,83.05
2019-03-13T12:20:08.406Z,83.26
2019-03-13T12:21:08.363Z,84.84
2019-03-13T12:22:08.395Z,84.33
2019-03-13T12:23:08.375Z,84.47
2019-03-13T12:24:08.419Z,84.12
2019-03-13T12:25:08.329Z,85.19
2019-03-13T12:26:08.367Z,84.84
2019-03-13T12:27:08.292Z,84.74
2019-03-13T12:28:08.298Z,84.88
2019-03-13T12:29:08.319Z,84.78
2019-03-13T12:30:08.270Z,84.57
2019-03-13T12:31:08.245Z,84.99
2019-03-13T12:32:08.264Z,85.39
2019-03-13T12:33:08.220Z,85.09
2019-03-13T12:34:08.213Z,84.36
2019-03-13T12:35:08.242Z,85.19
2019-03-13T12:36:08.335Z,85.60
2019-03-13T12:37:08.228Z,85.85
2019-03-13T12:38:08.175Z,85.54
2019-03-13T12:39:08.168Z,85.85
2019-03-13T12:40:08.209Z,86.57
2019-03-13T12:41:08.135Z,86.36
2019-03-13T12:42:08.151Z,86.78
2019-03-13T12:43:08.142Z,86.26
2019-03-13T12:44:08.173Z,86.26
2019-03-13T12:45:08.096Z,86.16
2019-03-13T12:46:08.217Z,86.47
2019-03-13T12:47:08.222Z,86.36
2019-03-13T12:48:16.574Z,87.50
2019-03-13T12:49:09.119Z,87.08
2019-03-13T12:50:08.022Z,88.02
2019-03-13T12:51:08.147Z,88.64
2019-03-13T12:52:08.009Z,88.12